LEIB Airport Information

Runway Information
Runway 06 Length 9186 ft width 148 ft
Elevation 13 ft Threshold 0 ft Heading 62
Runway 24 Length 9186 ft Width 148 ft
Elevation 16 ft Threshold 0 ft Heading 242
Airport Frequencies
Type APP Name PALMA APP Frequency 118.125 MHZ
Type APP Name APP Frequency 119.8 MHZ
Type ATIS Name ATIS Frequency 117.8 MHZ
Type GND Name GND Frequency 121.8 MHZ
Type TWR Name TWR Frequency 118.5 MHZ
Airport Navaids
Type VOR-DME Name Ibiza Frequency 117800 KHZ
Type NDB Name Ibiza Frequency 394 KHZ
Airport Weather Information & NOTAM
ADDS - METARS form results

(0726 UTC 17 October 2021)
Data provider http://aviationweather.gov/metar/data/
 
METAR text: LEIB 170700Z 00000KT 9999 -RA FEW020 19/17 Q1017 TEMPO TSRA FEW025CB
Conditions at: LEIB (IBIZA/ES CODOLA , ES) observed 0700 UTC 17 October 2021
Temperature: 19.0°C (66°F)
Dewpoint: 17.0°C (63°F) [RH = 88%]
Pressure (altimeter): 30.03 inches Hg (1017.0 mb)
Winds: calm
Visibility: 6 or more miles (10+ km)
Ceiling: at least 12,000 feet AGL
Clouds: few clouds at 2000 feet AGL
Weather: -RA  (light rain)

METAR text: LEIB 170630Z VRB02KT 9999 FEW020 19/17 Q1017 TEMPO TSRA FEW025CB
Conditions at: LEIB (IBIZA/ES CODOLA , ES) observed 0630 UTC 17 October 2021
Temperature: 19.0°C (66°F)
Dewpoint: 17.0°C (63°F) [RH = 88%]
Pressure (altimeter): 30.03 inches Hg (1017.0 mb)
Winds: variable direction winds at 2 MPH (2 knots; 1.0 m/s)
Visibility: 6 or more miles (10+ km)
Ceiling: at least 12,000 feet AGL
Clouds: few clouds at 2000 feet AGL
Weather: no significant weather observed at this time

Forecast for: AMD
Text: TAF AMD LEIB 170506Z 1705/1803 VRB04KT 9999 FEW020 TX24/1712Z TN15/1706Z
Forecast period: 0500 UTC 17 October 2021 to 0300 UTC 18 October 2021
Forecast type: FROM: standard forecast or significant change
Winds: variable direction winds at 5 MPH (4 knots; 2.1 m/s)
Visibility: 6 or more miles (10+ km)
Ceiling: at least 12,000 feet AGL
Clouds: few clouds at 2000 feet AGL
Weather: no significant weather forecast for this period
Text: TEMPO 1705/1716 SHRA FEW025TCU
Forecast period: 0500 to 1600 UTC 17 October 2021
Forecast type: TEMPORARY: The following changes expected for less than half the time period
Visibility: missing
Ceiling: at least 12,000 feet AGL
Clouds: few clouds at 2500 feet AGL
Weather: SHRA  (rain showers)
Text: PROB40
Forecast period: 0600 to 1400 UTC 17 October 2021
Forecast type: TEMPORARY: The following changes expected for less than half the time period
Winds: from the NW (310 degrees) at 12 MPH (10 knots; 5.1 m/s)
Visibility: 1.86 miles (2.99 km)
Ceiling: at least 12,000 feet AGL
Clouds: few clouds at 2500 feet AGL
Weather: TSRA  (rain associated with thunderstorm(s))